createdAt,value
2022-12-04T00:01:18.077Z,90.12
2022-12-04T00:03:45.767Z,88.84
2022-12-04T00:06:15.171Z,88.71
2022-12-04T00:08:43.838Z,89.19
2022-12-04T00:11:14.270Z,88.19
2022-12-04T00:13:42.461Z,87.93
2022-12-04T00:16:14.951Z,88.14
2022-12-04T00:18:42.929Z,88.34
2022-12-04T00:21:12.575Z,88.40
2022-12-04T00:23:42.553Z,88.83
2022-12-04T00:26:12.375Z,88.36
2022-12-04T00:28:40.541Z,88.75
2022-12-04T00:31:09.747Z,86.87
2022-12-04T00:33:40.045Z,87.64
2022-12-04T00:36:10.118Z,89.51
2022-12-04T00:38:38.795Z,89.27
2022-12-04T00:41:07.033Z,87.94
2022-12-04T00:43:34.853Z,89.12
2022-12-04T00:46:02.615Z,89.19
2022-12-04T00:48:30.722Z,87.66
2022-12-04T00:51:04.791Z,88.16
2022-12-04T00:53:32.628Z,88.47
2022-12-04T00:56:00.414Z,89.66
2022-12-04T00:58:28.318Z,89.25
2022-12-04T01:01:03.093Z,87.77
2022-12-04T01:03:31.240Z,85.33
2022-12-04T01:05:59.033Z,88.25
2022-12-04T01:08:28.208Z,89.05
2022-12-04T01:10:56.197Z,89.40
2022-12-04T01:13:24.043Z,88.32
2022-12-04T01:15:52.395Z,88.68
2022-12-04T01:18:20.088Z,89.41
2022-12-04T01:20:49.754Z,86.07
2022-12-04T01:23:17.725Z,87.70
2022-12-04T01:25:53.754Z,88.56
2022-12-04T01:28:21.858Z,89.34
2022-12-04T01:30:59.817Z,86.59
2022-12-04T01:33:27.667Z,85.75
2022-12-04T01:35:56.654Z,86.19
2022-12-04T01:38:24.959Z,89.67
2022-12-04T01:40:54.430Z,87.64
2022-12-04T01:43:23.678Z,85.89
2022-12-04T01:45:52.255Z,88.05
2022-12-04T01:48:26.415Z,87.26
2022-12-04T01:50:59.264Z,89.42
2022-12-04T01:53:27.886Z,89.16
2022-12-04T01:55:57.644Z,86.62
2022-12-04T01:58:29.826Z,85.33
2022-12-04T02:01:07.938Z,87.80
2022-12-04T02:03:37.864Z,84.98
2022-12-04T02:06:05.830Z,83.86
2022-12-04T02:08:35.233Z,86.49
2022-12-04T02:11:15.361Z,87.60
2022-12-04T02:13:55.369Z,87.02
2022-12-04T02:16:29.922Z,87.84
2022-12-04T02:19:05.917Z,87.28
2022-12-04T02:21:37.368Z,88.25
2022-12-04T02:24:27.050Z,88.23
2022-12-04T02:27:00.520Z,90.27
2022-12-04T02:29:38.730Z,89.12
2022-12-04T02:32:17.510Z,87.59
2022-12-04T02:34:52.270Z,86.90
2022-12-04T02:37:27.420Z,86.55
2022-12-04T02:40:00.339Z,88.35
2022-12-04T02:42:33.745Z,89.74
2022-12-04T02:45:07.792Z,90.37
2022-12-04T02:47:37.819Z,88.92
2022-12-04T02:50:10.734Z,89.66
2022-12-04T02:52:45.059Z,90.00
2022-12-04T02:55:19.425Z,89.05
2022-12-04T02:57:51.283Z,87.56
2022-12-04T03:00:22.634Z,87.07
2022-12-04T03:02:55.876Z,87.78
2022-12-04T03:05:27.855Z,87.87
2022-12-04T03:07:58.617Z,91.13
2022-12-04T03:10:32.811Z,88.90
2022-12-04T03:13:06.394Z,89.74
2022-12-04T03:15:41.217Z,90.99
2022-12-04T03:18:16.045Z,89.81
2022-12-04T03:20:46.418Z,88.72
2022-12-04T03:23:19.572Z,87.25
2022-12-04T03:25:55.271Z,88.40
2022-12-04T03:28:30.071Z,89.02
2022-12-04T03:31:05.154Z,90.84
2022-12-04T03:33:41.457Z,90.52
2022-12-04T03:36:14.871Z,91.22
2022-12-04T03:38:56.137Z,89.14
2022-12-04T03:41:29.693Z,90.09
2022-12-04T03:44:03.613Z,89.34
2022-12-04T03:46:37.148Z,90.14
2022-12-04T03:49:13.739Z,87.80
2022-12-04T03:51:48.202Z,89.71
2022-12-04T03:54:20.140Z,91.18
2022-12-04T03:56:53.076Z,90.49
2022-12-04T03:59:25.431Z,90.16
2022-12-04T04:01:57.397Z,87.91
2022-12-04T04:04:31.476Z,89.40
2022-12-04T04:07:04.400Z,88.64
2022-12-04T04:09:36.778Z,89.37
2022-12-04T04:12:08.636Z,90.13
2022-12-04T04:14:58.954Z,87.94
2022-12-04T04:17:49.731Z,89.54
2022-12-04T04:20:40.511Z,89.90
2022-12-04T04:23:29.831Z,90.36
2022-12-04T04:25:59.851Z,89.48
2022-12-04T04:28:30.040Z,86.80
2022-12-04T04:31:06.185Z,90.64
2022-12-04T04:33:40.805Z,89.06
2022-12-04T04:36:17.577Z,89.65
2022-12-04T04:38:51.308Z,86.99
2022-12-04T04:41:26.128Z,88.01
2022-12-04T04:44:01.385Z,89.83
2022-12-04T04:46:32.185Z,90.14
2022-12-04T04:49:04.803Z,91.42
2022-12-04T04:51:35.389Z,90.55
2022-12-04T04:54:08.113Z,88.82
2022-12-04T04:56:41.339Z,90.54
2022-12-04T04:59:09.061Z,90.57
2022-12-04T05:01:38.316Z,89.72
2022-12-04T05:04:08.713Z,89.73
2022-12-04T05:06:36.366Z,91.66
2022-12-04T05:09:04.690Z,91.56
2022-12-04T05:11:32.807Z,91.63
2022-12-04T05:14:00.536Z,91.25
2022-12-04T05:16:28.310Z,92.26
2022-12-04T05:19:13.597Z,90.12
2022-12-04T05:21:42.646Z,92.40
2022-12-04T05:24:10.691Z,89.80
2022-12-04T05:26:38.427Z,89.03
2022-12-04T05:29:06.146Z,89.53
2022-12-04T05:31:33.881Z,91.86
2022-12-04T05:34:01.646Z,88.60
2022-12-04T05:36:29.480Z,90.93
2022-12-04T05:38:58.560Z,89.89
2022-12-04T05:41:26.459Z,92.08
2022-12-04T05:43:54.216Z,90.87
2022-12-04T05:46:22.050Z,91.44
2022-12-04T05:48:49.822Z,92.56
2022-12-04T05:51:17.640Z,90.60
2022-12-04T05:53:45.350Z,89.75
2022-12-04T05:56:14.406Z,91.68
2022-12-04T05:58:42.241Z,92.79
2022-12-04T06:01:12.438Z,91.21
2022-12-04T06:03:40.215Z,91.40
2022-12-04T06:06:19.326Z,89.85
2022-12-04T06:08:49.306Z,89.96
2022-12-04T06:11:20.979Z,88.74
2022-12-04T06:13:49.006Z,88.63
2022-12-04T06:16:18.696Z,90.45
2022-12-04T06:18:49.487Z,88.25
2022-12-04T06:21:17.501Z,89.78
2022-12-04T06:23:45.222Z,89.23
2022-12-04T06:26:13.081Z,91.32
2022-12-04T06:28:42.523Z,92.44
2022-12-04T06:31:12.278Z,92.49
2022-12-04T06:33:40.787Z,92.41
2022-12-04T06:36:11.763Z,89.99
2022-12-04T06:38:40.162Z,90.14
2022-12-04T06:41:09.333Z,92.30
2022-12-04T06:43:37.429Z,89.75
2022-12-04T06:46:09.488Z,90.65
2022-12-04T06:48:38.285Z,90.67
2022-12-04T06:51:08.445Z,90.72
2022-12-04T06:53:36.441Z,88.67
2022-12-04T06:56:08.070Z,88.81
2022-12-04T06:58:36.660Z,91.58
2022-12-04T07:01:10.703Z,90.33
2022-12-04T07:03:39.536Z,89.26
2022-12-04T07:06:15.061Z,87.00
2022-12-04T07:08:43.270Z,88.63
2022-12-04T07:11:11.686Z,90.84
2022-12-04T07:13:40.202Z,90.96
2022-12-04T07:16:11.951Z,88.16
2022-12-04T07:18:39.781Z,87.67
2022-12-04T07:21:10.222Z,89.51
2022-12-04T07:23:38.306Z,88.92
2022-12-04T07:26:07.514Z,89.40
2022-12-04T07:28:36.137Z,88.35
2022-12-04T07:31:06.406Z,90.55
2022-12-04T07:33:36.060Z,90.26
2022-12-04T07:36:06.959Z,90.94
2022-12-04T07:38:35.949Z,90.77
2022-12-04T07:41:05.621Z,89.46
2022-12-04T07:43:34.067Z,89.74
2022-12-04T07:46:06.363Z,92.43
2022-12-04T07:48:35.625Z,92.29
2022-12-04T07:51:04.819Z,88.79
2022-12-04T07:53:32.714Z,88.47
2022-12-04T07:56:00.481Z,90.57
2022-12-04T07:58:28.387Z,90.77
2022-12-04T08:00:56.194Z,88.62
2022-12-04T08:03:24.905Z,89.76
2022-12-04T08:05:54.001Z,90.21
2022-12-04T08:08:21.755Z,91.27
2022-12-04T08:10:49.490Z,90.64
2022-12-04T08:13:17.192Z,91.47
2022-12-04T08:15:45.134Z,90.91
2022-12-04T08:18:12.885Z,91.69
2022-12-04T08:20:40.893Z,89.83
2022-12-04T08:23:10.029Z,92.19
2022-12-04T08:25:39.510Z,91.54
2022-12-04T08:28:07.634Z,90.62
2022-12-04T08:30:36.412Z,90.29
2022-12-04T08:33:04.431Z,91.55
2022-12-04T08:35:32.139Z,93.80
2022-12-04T08:37:59.845Z,91.82
2022-12-04T08:40:28.968Z,89.26
2022-12-04T08:42:56.760Z,90.28
2022-12-04T08:45:24.422Z,92.52
2022-12-04T08:47:52.660Z,92.77
2022-12-04T08:50:20.447Z,92.63
2022-12-04T08:52:48.154Z,91.01
2022-12-04T08:55:16.051Z,91.71
2022-12-04T08:57:45.091Z,91.55
2022-12-04T09:00:15.458Z,92.74
2022-12-04T09:02:43.402Z,92.14
2022-12-04T09:05:11.092Z,91.73
2022-12-04T09:07:38.823Z,90.73
2022-12-04T09:10:07.769Z,91.75
2022-12-04T09:12:35.450Z,90.84
2022-12-04T09:15:05.254Z,91.14
2022-12-04T09:17:33.025Z,91.97
2022-12-04T09:20:01.553Z,91.28
2022-12-04T09:22:45.522Z,92.33
2022-12-04T09:25:13.614Z,92.65
2022-12-04T09:27:43.230Z,92.82
2022-12-04T09:30:13.785Z,90.99
2022-12-04T09:32:41.632Z,88.09
2022-12-04T09:35:09.820Z,89.18
2022-12-04T09:37:38.554Z,90.42
2022-12-04T09:40:07.997Z,91.05
2022-12-04T09:42:45.208Z,91.23
2022-12-04T09:45:17.070Z,91.91
2022-12-04T09:47:47.513Z,92.00
2022-12-04T09:50:21.212Z,88.04
2022-12-04T09:52:56.162Z,88.29
2022-12-04T09:55:28.780Z,88.25
2022-12-04T09:58:02.080Z,90.97
2022-12-04T10:00:33.773Z,90.63
2022-12-04T10:03:05.599Z,89.05
2022-12-04T10:05:46.466Z,90.63
2022-12-04T10:08:20.804Z,90.29
2022-12-04T10:10:57.932Z,90.22
2022-12-04T10:14:03.247Z,89.96
2022-12-04T10:16:45.232Z,88.86
2022-12-04T10:19:22.524Z,89.01
2022-12-04T10:22:01.871Z,89.97
2022-12-04T10:24:39.098Z,88.99
2022-12-04T10:27:13.281Z,89.97
2022-12-04T10:29:44.789Z,90.19
2022-12-04T10:32:22.095Z,90.20
2022-12-04T10:34:53.405Z,88.00
2022-12-04T10:37:22.338Z,87.36
2022-12-04T10:39:54.494Z,88.95
2022-12-04T10:42:30.297Z,90.11
2022-12-04T10:44:58.329Z,87.70
2022-12-04T10:47:28.901Z,89.34
2022-12-04T10:50:01.661Z,89.10
2022-12-04T10:52:29.479Z,90.27
2022-12-04T10:55:00.532Z,89.63
2022-12-04T10:57:40.004Z,87.08
2022-12-04T11:00:27.086Z,91.60
2022-12-04T11:02:59.238Z,90.51
2022-12-04T11:05:31.242Z,89.96
2022-12-04T11:08:01.100Z,90.21
2022-12-04T11:10:35.031Z,90.28
2022-12-04T11:13:04.735Z,90.88
2022-12-04T11:15:36.926Z,89.36
2022-12-04T11:18:18.566Z,88.88
2022-12-04T11:20:51.720Z,88.43
2022-12-04T11:23:19.949Z,88.47
2022-12-04T11:25:50.044Z,88.46
2022-12-04T11:28:41.136Z,89.62
2022-12-04T11:31:10.582Z,90.65
2022-12-04T11:33:45.494Z,89.58
2022-12-04T11:36:22.111Z,89.46
2022-12-04T11:38:50.788Z,89.37
2022-12-04T11:41:26.938Z,88.92
2022-12-04T11:43:59.627Z,90.75
2022-12-04T11:46:30.488Z,90.41
2022-12-04T11:48:59.893Z,91.42
2022-12-04T11:51:42.410Z,89.97
2022-12-04T11:54:22.978Z,89.92
2022-12-04T11:57:00.059Z,89.07
2022-12-04T11:59:55.393Z,89.47
2022-12-04T12:02:39.145Z,90.14
2022-12-04T12:05:25.181Z,87.52
2022-12-04T12:08:03.046Z,87.92
2022-12-04T12:10:43.030Z,88.45
2022-12-04T12:13:21.060Z,88.93
2022-12-04T12:16:00.199Z,89.94
2022-12-04T12:18:47.803Z,89.23
2022-12-04T12:21:25.472Z,88.73
2022-12-04T12:24:10.701Z,89.87
2022-12-04T12:26:48.597Z,90.07
2022-12-04T12:29:31.083Z,90.58
2022-12-04T12:32:15.272Z,87.99
2022-12-04T12:34:45.117Z,86.87
2022-12-04T12:37:22.624Z,89.25
2022-12-04T12:39:58.043Z,89.22
2022-12-04T12:42:31.861Z,88.43
2022-12-04T12:45:07.657Z,88.30
2022-12-04T12:47:41.729Z,89.21
2022-12-04T12:50:16.726Z,90.86
2022-12-04T12:52:53.726Z,90.35
2022-12-04T12:55:25.642Z,91.30
2022-12-04T12:58:01.602Z,89.81
2022-12-04T13:00:32.957Z,87.61
2022-12-04T13:03:29.342Z,89.53
2022-12-04T13:06:02.150Z,89.36
2022-12-04T13:08:39.130Z,89.56
2022-12-04T13:11:12.425Z,88.93
2022-12-04T13:13:44.613Z,87.39
2022-12-04T13:16:16.069Z,88.53
2022-12-04T13:18:49.243Z,87.02
2022-12-04T13:21:31.400Z,87.20
2022-12-04T13:24:22.368Z,86.13
2022-12-04T13:26:56.581Z,87.43
2022-12-04T13:29:45.787Z,89.23
2022-12-04T13:32:37.276Z,89.57
2022-12-04T13:35:13.254Z,90.34
2022-12-04T13:38:07.118Z,88.20
2022-12-04T13:40:40.679Z,89.10
2022-12-04T13:43:21.906Z,90.20
2022-12-04T13:45:52.917Z,90.47
2022-12-04T13:48:33.551Z,90.20
2022-12-04T13:51:23.804Z,88.62
2022-12-04T13:54:03.645Z,90.02
2022-12-04T13:56:32.764Z,89.77
2022-12-04T13:59:03.032Z,91.14
2022-12-04T14:01:38.326Z,92.60
2022-12-04T14:04:06.623Z,90.07
2022-12-04T14:06:39.293Z,91.84
2022-12-04T14:09:10.435Z,91.12
2022-12-04T14:11:47.475Z,91.29
2022-12-04T14:14:26.556Z,90.63
2022-12-04T14:16:55.738Z,92.67
2022-12-04T14:19:31.220Z,91.17
2022-12-04T14:21:59.731Z,92.60
2022-12-04T14:24:33.337Z,93.06
2022-12-04T14:27:11.585Z,93.45
2022-12-04T14:29:48.982Z,93.31
2022-12-04T14:32:20.009Z,92.71
2022-12-04T14:34:48.723Z,92.73
2022-12-04T14:37:23.119Z,94.03
2022-12-04T14:39:52.355Z,94.13
2022-12-04T14:42:27.118Z,93.47
2022-12-04T14:44:57.009Z,94.67
2022-12-04T14:47:39.784Z,93.89
2022-12-04T14:50:21.744Z,92.61
2022-12-04T14:52:56.192Z,93.22
2022-12-04T14:55:32.908Z,93.39
2022-12-04T14:58:25.000Z,93.62
2022-12-04T15:00:54.610Z,93.35
2022-12-04T15:03:23.186Z,93.84
2022-12-04T15:05:52.292Z,95.45
2022-12-04T15:08:20.867Z,94.31
2022-12-04T15:11:08.244Z,95.26
2022-12-04T15:13:39.436Z,94.63
2022-12-04T15:16:11.626Z,93.81
2022-12-04T15:18:39.842Z,95.35
2022-12-04T15:21:11.642Z,92.84
2022-12-04T15:23:42.461Z,94.13
2022-12-04T15:26:13.858Z,92.09
2022-12-04T15:28:48.173Z,91.94
2022-12-04T15:31:20.178Z,91.09
2022-12-04T15:33:50.541Z,96.17
2022-12-04T15:36:21.546Z,94.79
2022-12-04T15:38:51.703Z,95.73
2022-12-04T15:41:31.132Z,97.22
2022-12-04T15:44:00.916Z,94.83
2022-12-04T15:46:33.628Z,94.38
2022-12-04T15:49:16.351Z,93.50
2022-12-04T15:51:45.683Z,93.77
2022-12-04T15:54:20.863Z,94.87
2022-12-04T15:56:59.717Z,93.86
2022-12-04T15:59:30.715Z,95.28
2022-12-04T16:02:07.212Z,97.22
2022-12-04T16:04:35.678Z,95.14
2022-12-04T16:07:03.856Z,92.65
2022-12-04T16:09:32.431Z,95.41
2022-12-04T16:12:02.728Z,96.27
2022-12-04T16:14:31.945Z,94.80
2022-12-04T16:17:06.324Z,92.74
2022-12-04T16:19:36.835Z,93.79
2022-12-04T16:22:12.071Z,93.95
2022-12-04T16:24:40.498Z,95.60
2022-12-04T16:27:12.533Z,96.40
2022-12-04T16:29:41.780Z,94.76
2022-12-04T16:32:12.362Z,94.83
2022-12-04T16:34:40.417Z,96.03
2022-12-04T16:37:13.247Z,97.02
2022-12-04T16:39:41.642Z,96.03
2022-12-04T16:42:16.578Z,97.11
2022-12-04T16:44:46.010Z,96.33
2022-12-04T16:47:13.899Z,96.36
2022-12-04T16:49:42.801Z,93.53
2022-12-04T16:52:11.814Z,93.14
2022-12-04T16:54:39.919Z,95.84
2022-12-04T16:57:07.760Z,97.63
2022-12-04T16:59:35.720Z,93.77
2022-12-04T17:02:07.439Z,92.28
2022-12-04T17:04:35.642Z,94.60
2022-12-04T17:07:03.486Z,96.27
2022-12-04T17:09:31.194Z,94.09
2022-12-04T17:11:58.899Z,97.85
2022-12-04T17:14:26.642Z,96.67
2022-12-04T17:16:55.086Z,95.01
2022-12-04T17:19:24.303Z,96.36
2022-12-04T17:21:52.059Z,97.24
2022-12-04T17:24:19.820Z,96.42
2022-12-04T17:26:47.535Z,94.71
2022-12-04T17:29:15.383Z,97.39
2022-12-04T17:31:43.465Z,96.88
2022-12-04T17:34:11.253Z,97.90
2022-12-04T17:36:40.485Z,98.42
2022-12-04T17:39:11.530Z,98.26
2022-12-04T17:41:39.324Z,98.48
2022-12-04T17:44:07.314Z,98.15
2022-12-04T17:46:35.281Z,98.32
2022-12-04T17:49:07.054Z,95.96
2022-12-04T17:51:35.892Z,97.54
2022-12-04T17:54:05.752Z,97.64
2022-12-04T17:56:34.028Z,96.56
2022-12-04T17:59:01.797Z,94.64
2022-12-04T18:01:30.600Z,97.29
2022-12-04T18:04:01.816Z,97.71
2022-12-04T18:06:31.608Z,98.22
2022-12-04T18:08:59.749Z,98.43
2022-12-04T18:11:31.161Z,98.30
2022-12-04T18:14:00.610Z,96.65
2022-12-04T18:16:29.698Z,96.24
2022-12-04T18:18:59.114Z,95.50
2022-12-04T18:21:27.286Z,97.73
2022-12-04T18:23:58.053Z,96.28
2022-12-04T18:26:28.728Z,98.03
2022-12-04T18:28:56.831Z,96.85
2022-12-04T18:31:24.955Z,94.57
2022-12-04T18:33:52.766Z,94.93
2022-12-04T18:36:24.101Z,94.91
2022-12-04T18:38:55.226Z,93.10
2022-12-04T18:41:23.353Z,96.83
2022-12-04T18:43:53.195Z,96.71
2022-12-04T18:46:21.861Z,93.83
2022-12-04T18:48:51.020Z,93.93
2022-12-04T18:51:21.642Z,93.12
2022-12-04T18:53:50.204Z,93.81
2022-12-04T18:56:18.494Z,92.30
2022-12-04T18:58:47.389Z,95.05
2022-12-04T19:01:19.437Z,96.35
2022-12-04T19:03:48.672Z,96.50
2022-12-04T19:06:16.381Z,95.01
2022-12-04T19:08:44.184Z,96.02
2022-12-04T19:11:14.131Z,96.13
2022-12-04T19:13:42.634Z,95.28
2022-12-04T19:16:13.116Z,94.51
2022-12-04T19:18:45.214Z,95.88
2022-12-04T19:21:13.969Z,96.55
2022-12-04T19:23:41.967Z,97.09
2022-12-04T19:26:10.218Z,96.76
2022-12-04T19:28:38.254Z,94.31
2022-12-04T19:31:06.427Z,96.50
2022-12-04T19:33:34.155Z,96.72
2022-12-04T19:36:06.024Z,93.68
2022-12-04T19:38:34.844Z,94.14
2022-12-04T19:41:08.205Z,93.53
2022-12-04T19:43:36.058Z,96.16
2022-12-04T19:46:04.209Z,97.45
2022-12-04T19:48:32.087Z,95.14
2022-12-04T19:51:05.739Z,95.28
2022-12-04T19:53:40.496Z,94.78
2022-12-04T19:56:11.959Z,96.21
2022-12-04T19:58:40.193Z,93.78
2022-12-04T20:01:09.708Z,94.71
2022-12-04T20:03:37.851Z,95.71
2022-12-04T20:06:09.161Z,94.92
2022-12-04T20:08:37.931Z,94.68
2022-12-04T20:11:06.519Z,91.29
2022-12-04T20:13:36.239Z,94.32
2022-12-04T20:16:04.228Z,94.81
2022-12-04T20:18:32.555Z,92.77
2022-12-04T20:21:02.121Z,92.83
2022-12-04T20:23:31.280Z,94.08
2022-12-04T20:26:05.060Z,91.33
2022-12-04T20:28:33.056Z,91.03
2022-12-04T20:31:01.012Z,91.47
2022-12-04T20:33:28.766Z,92.04
2022-12-04T20:35:56.514Z,93.02
2022-12-04T20:38:24.230Z,91.70
2022-12-04T20:40:53.275Z,93.68
2022-12-04T20:43:21.081Z,94.59
2022-12-04T20:45:49.096Z,94.11
2022-12-04T20:48:17.072Z,94.22
2022-12-04T20:50:46.070Z,93.03
2022-12-04T20:53:13.837Z,93.60
2022-12-04T20:55:41.629Z,91.04
2022-12-04T20:58:10.749Z,92.93
2022-12-04T21:00:38.442Z,93.64
2022-12-04T21:03:06.279Z,94.77
2022-12-04T21:05:34.051Z,92.53
2022-12-04T21:08:01.931Z,93.15
2022-12-04T21:10:29.790Z,93.09
2022-12-04T21:13:15.042Z,93.32
2022-12-04T21:16:03.422Z,93.53
2022-12-04T21:18:31.228Z,94.34
2022-12-04T21:20:58.993Z,93.47
2022-12-04T21:23:26.758Z,95.23
2022-12-04T21:25:56.481Z,95.14
2022-12-04T21:28:25.053Z,92.39
2022-12-04T21:30:54.415Z,94.30
2022-12-04T21:33:22.187Z,91.22
2022-12-04T21:35:50.017Z,92.79
2022-12-04T21:38:17.856Z,93.67
2022-12-04T21:40:49.258Z,90.75
2022-12-04T21:43:17.000Z,94.35
2022-12-04T21:45:45.846Z,95.12
2022-12-04T21:48:15.027Z,95.74
2022-12-04T21:50:42.830Z,94.04
2022-12-04T21:53:10.658Z,93.02
2022-12-04T21:55:38.564Z,91.52
2022-12-04T21:58:06.302Z,91.53
2022-12-04T22:00:34.043Z,90.52
2022-12-04T22:03:01.826Z,92.08
2022-12-04T22:05:32.414Z,88.89
2022-12-04T22:08:00.253Z,89.04
2022-12-04T22:10:28.031Z,92.66
2022-12-04T22:12:55.772Z,93.63
2022-12-04T22:15:23.439Z,93.63
2022-12-04T22:17:51.291Z,91.73
2022-12-04T22:20:19.350Z,92.83
2022-12-04T22:22:48.536Z,95.33
2022-12-04T22:25:16.232Z,96.64
2022-12-04T22:27:43.949Z,95.08
2022-12-04T22:30:13.142Z,94.15
2022-12-04T22:32:40.858Z,93.65
2022-12-04T22:35:09.256Z,95.35
2022-12-04T22:37:41.189Z,94.08
2022-12-04T22:40:14.235Z,97.93
2022-12-04T22:42:42.003Z,97.45
2022-12-04T22:45:10.914Z,93.69
2022-12-04T22:47:39.162Z,97.16
2022-12-04T22:50:08.334Z,97.70
2022-12-04T22:52:36.053Z,95.28
2022-12-04T22:55:03.823Z,97.38
2022-12-04T22:57:34.892Z,96.68
2022-12-04T23:00:02.644Z,96.30
2022-12-04T23:02:30.306Z,97.26
2022-12-04T23:04:58.001Z,96.72
2022-12-04T23:07:25.728Z,97.33
2022-12-04T23:09:53.441Z,97.13
2022-12-04T23:12:21.160Z,95.44
2022-12-04T23:14:50.485Z,97.05
2022-12-04T23:17:18.184Z,97.26
2022-12-04T23:19:45.910Z,95.13
2022-12-04T23:22:13.791Z,96.80
2022-12-04T23:24:41.901Z,94.08
2022-12-04T23:27:09.572Z,94.46
2022-12-04T23:29:52.776Z,95.20
2022-12-04T23:32:26.427Z,91.93
2022-12-04T23:34:54.209Z,92.37
2022-12-04T23:37:21.965Z,91.93
2022-12-04T23:39:49.664Z,97.17
2022-12-04T23:42:17.314Z,93.44
2022-12-04T23:44:45.025Z,93.79
2022-12-04T23:47:12.762Z,96.20
2022-12-04T23:49:41.820Z,96.59
2022-12-04T23:52:09.548Z,97.36
2022-12-04T23:54:37.643Z,95.58
2022-12-04T23:57:05.537Z,94.38
2022-12-04T23:59:33.355Z,92.07
